Time,TemperatureF,DewpointF,PressureIn,WindDirection,WindDirectionDegrees,WindSpeedMPH,WindSpeedGustMPH,Humidity,HourlyPrecipIn,Conditions,Clouds,dailyrainin,SoftwareType,DateUTC
2013-11-18 00:00:00,22.8,20.0,29.91,South,172,0.0,3.0,89,0.00,,,0.00,VWS V14.01,2013-11-18 06:00:00,
2013-11-18 00:01:00,22.8,20.0,29.90,South,172,1.0,2.0,89,0.00,,,0.00,VWS V14.01,2013-11-18 06:01:00,
2013-11-18 00:06:00,22.8,20.0,29.91,South,172,1.0,2.0,89,0.00,,,0.00,VWS V14.01,2013-11-18 06:06:00,
2013-11-18 00:11:00,22.7,19.9,29.91,South,172,0.0,2.0,89,0.00,,,0.00,VWS V14.01,2013-11-18 06:11:00,
2013-11-18 00:15:00,22.7,19.9,29.91,South,172,2.0,2.0,89,0.00,,,0.00,VWS V14.01,2013-11-18 06:15:00,
2013-11-18 00:16:00,22.7,19.9,29.91,South,172,0.0,2.0,89,0.00,,,0.00,VWS V14.01,2013-11-18 06:16:00,
2013-11-18 00:21:00,22.7,19.9,29.92,South,172,0.0,2.0,89,0.00,,,0.00,VWS V14.01,2013-11-18 06:21:00,
2013-11-18 00:26:00,22.8,20.0,29.92,South,172,0.0,2.0,89,0.00,,,0.00,VWS V14.01,2013-11-18 06:26:00,
2013-11-18 00:30:00,22.7,19.9,29.92,South,172,0.0,2.0,89,0.00,,,0.00,VWS V14.01,2013-11-18 06:30:00,
2013-11-18 00:31:00,22.7,19.9,29.92,South,172,0.0,1.0,89,0.00,,,0.00,VWS V14.01,2013-11-18 06:31:00,
2013-11-18 00:36:00,22.8,20.0,29.92,South,172,1.0,1.0,89,0.00,,,0.00,VWS V14.01,2013-11-18 06:36:00,
2013-11-18 00:41:00,22.7,19.9,29.92,South,172,0.0,1.0,89,0.00,,,0.00,VWS V14.01,2013-11-18 06:41:00,
2013-11-18 00:45:00,22.7,19.9,29.92,South,172,0.0,1.0,89,0.00,,,0.00,VWS V14.01,2013-11-18 06:45:00,
2013-11-18 00:46:00,22.8,20.2,29.92,South,172,0.0,1.0,90,0.00,,,0.00,VWS V14.01,2013-11-18 06:46:00,
2013-11-18 00:51:00,22.8,20.2,29.92,South,172,1.0,2.0,90,0.00,,,0.00,VWS V14.01,2013-11-18 06:51:00,
2013-11-18 00:56:00,22.8,20.2,29.92,South,172,1.0,2.0,90,0.00,,,0.00,VWS V14.01,2013-11-18 06:56:00,
2013-11-18 01:00:00,22.8,20.2,29.92,South,172,1.0,2.0,90,0.00,,,0.00,VWS V14.01,2013-11-18 07:00:00,
2013-11-18 01:01:00,22.8,20.2,29.92,South,172,0.0,1.0,90,0.00,,,0.00,VWS V14.01,2013-11-18 07:01:00,
2013-11-18 01:06:00,22.8,20.2,29.92,South,175,0.0,2.0,90,0.00,,,0.00,VWS V14.01,2013-11-18 07:06:00,
2013-11-18 01:11:00,22.8,20.2,29.93,South,175,1.0,2.0,90,0.00,,,0.00,VWS V14.01,2013-11-18 07:11:00,
2013-11-18 01:15:00,22.8,20.2,29.93,SSW,196,0.0,2.0,90,0.00,,,0.00,VWS V14.01,2013-11-18 07:15:00,
2013-11-18 01:16:00,22.8,20.2,29.93,SSW,196,1.0,2.0,90,0.00,,,0.00,VWS V14.01,2013-11-18 07:16:00,
2013-11-18 01:21:00,22.8,20.2,29.93,SSW,196,1.0,2.0,90,0.00,,,0.00,VWS V14.01,2013-11-18 07:21:00,
2013-11-18 01:26:00,22.8,20.2,29.93,SSW,196,1.0,2.0,90,0.00,,,0.00,VWS V14.01,2013-11-18 07:26:00,
2013-11-18 01:30:00,22.8,20.2,29.92,SSW,196,0.0,2.0,90,0.00,,,0.00,VWS V14.01,2013-11-18 07:30:00,
2013-11-18 01:31:00,22.8,20.2,29.93,SSW,196,2.0,2.0,90,0.00,,,0.00,VWS V14.01,2013-11-18 07:31:00,
2013-11-18 01:36:00,22.7,20.1,29.93,SW,217,1.0,2.0,90,0.00,,,0.00,VWS V14.01,2013-11-18 07:36:00,
2013-11-18 01:41:00,22.7,20.1,29.93,WNW,294,0.0,4.0,90,0.00,,,0.00,VWS V14.01,2013-11-18 07:41:00,
2013-11-18 01:45:00,22.7,20.1,29.93,WNW,294,0.0,4.0,90,0.00,,,0.00,VWS V14.01,2013-11-18 07:45:00,
2013-11-18 01:46:00,22.7,20.1,29.93,WNW,294,1.0,2.0,90,0.00,,,0.00,VWS V14.01,2013-11-18 07:46:00,
2013-11-18 01:51:00,22.7,20.1,29.94,NNW,330,0.0,4.0,90,0.00,,,0.00,VWS V14.01,2013-11-18 07:51:00,
2013-11-18 01:56:00,22.6,20.0,29.93,NW,325,0.0,4.0,90,0.00,,,0.00,VWS V14.01,2013-11-18 07:56:00,
2013-11-18 02:00:00,22.6,20.0,29.93,NW,325,1.0,4.0,90,0.00,,,0.00,VWS V14.01,2013-11-18 08:00:00,
2013-11-18 02:01:00,22.6,20.0,29.94,NW,321,2.0,2.0,90,0.00,,,0.00,VWS V14.01,2013-11-18 08:01:00,
2013-11-18 02:06:00,22.5,19.9,29.94,WNW,296,3.0,4.0,90,0.00,,,0.00,VWS V14.01,2013-11-18 08:06:00,
2013-11-18 02:11:00,22.6,20.0,29.93,WNW,286,4.0,4.0,90,0.00,,,0.00,VWS V14.01,2013-11-18 08:11:00,
2013-11-18 02:15:00,22.6,20.0,29.94,WNW,293,1.0,4.0,90,0.00,,,0.00,VWS V14.01,2013-11-18 08:15:00,
2013-11-18 02:16:00,22.7,20.1,29.94,WNW,293,2.0,3.0,90,0.00,,,0.00,VWS V14.01,2013-11-18 08:16:00,
2013-11-18 02:21:00,22.7,20.1,29.94,West,281,2.0,3.0,90,0.00,,,0.00,VWS V14.01,2013-11-18 08:21:00,
2013-11-18 02:26:00,22.7,20.1,29.94,West,273,3.0,4.0,90,0.00,,,0.00,VWS V14.01,2013-11-18 08:26:00,
2013-11-18 02:30:00,22.8,20.2,29.94,WNW,291,4.0,7.0,90,0.00,,,0.00,VWS V14.01,2013-11-18 08:30:00,
2013-11-18 02:31:00,22.9,20.1,29.94,WNW,295,3.0,7.0,89,0.00,,,0.00,VWS V14.01,2013-11-18 08:31:00,
2013-11-18 02:36:00,23.1,20.3,29.94,WNW,300,4.0,7.0,89,0.00,,,0.00,VWS V14.01,2013-11-18 08:36:00,
2013-11-18 02:41:00,23.1,20.0,29.94,West,275,2.0,7.0,88,0.00,,,0.00,VWS V14.01,2013-11-18 08:41:00,
2013-11-18 02:45:00,23.0,19.9,29.94,WNW,289,3.0,7.0,88,0.00,,,0.00,VWS V14.01,2013-11-18 08:45:00,
2013-11-18 02:46:00,23.0,19.9,29.94,WNW,285,3.0,4.0,88,0.00,,,0.00,VWS V14.01,2013-11-18 08:46:00,
2013-11-18 02:51:00,23.1,20.0,29.94,WNW,289,2.0,4.0,88,0.00,,,0.00,VWS V14.01,2013-11-18 08:51:00,
2013-11-18 02:56:00,23.0,19.9,29.94,WNW,300,3.0,4.0,88,0.00,,,0.00,VWS V14.01,2013-11-18 08:56:00,
2013-11-18 03:00:00,23.0,19.9,29.94,WNW,303,2.0,4.0,88,0.00,,,0.00,VWS V14.01,2013-11-18 09:00:00,
2013-11-18 03:01:00,23.0,19.9,29.94,WNW,290,3.0,4.0,88,0.00,,,0.00,VWS V14.01,2013-11-18 09:01:00,
2013-11-18 03:06:00,22.9,19.8,29.94,WNW,296,2.0,4.0,88,0.00,,,0.00,VWS V14.01,2013-11-18 09:06:00,
2013-11-18 03:11:00,22.8,19.7,29.94,WNW,291,6.0,6.0,88,0.00,,,0.00,VWS V14.01,2013-11-18 09:11:00,
2013-11-18 03:15:00,22.9,19.8,29.94,NW,320,1.0,6.0,88,0.00,,,0.00,VWS V14.01,2013-11-18 09:15:00,
2013-11-18 03:16:00,22.9,19.8,29.94,WNW,295,0.0,4.0,88,0.00,,,0.00,VWS V14.01,2013-11-18 09:16:00,
2013-11-18 03:21:00,22.8,19.4,29.94,WNW,295,1.0,4.0,87,0.00,,,0.00,VWS V14.01,2013-11-18 09:21:00,
2013-11-18 03:26:00,22.8,19.4,29.94,WNW,295,0.0,4.0,87,0.00,,,0.00,VWS V14.01,2013-11-18 09:26:00,
2013-11-18 03:30:00,22.7,19.3,29.94,WNW,295,1.0,4.0,87,0.00,,,0.00,VWS V14.01,2013-11-18 09:30:00,
2013-11-18 03:31:00,22.6,19.2,29.94,WNW,295,1.0,2.0,87,0.00,,,0.00,VWS V14.01,2013-11-18 09:31:00,
2013-11-18 03:36:00,22.6,19.2,29.94,West,260,2.0,4.0,87,0.00,,,0.00,VWS V14.01,2013-11-18 09:36:00,
2013-11-18 03:41:00,22.5,19.1,29.95,WNW,295,1.0,4.0,87,0.00,,,0.00,VWS V14.01,2013-11-18 09:41:00,
2013-11-18 03:45:00,22.5,19.1,29.95,West,271,3.0,4.0,87,0.00,,,0.00,VWS V14.01,2013-11-18 09:45:00,
2013-11-18 03:46:00,22.5,19.1,29.95,West,271,1.0,3.0,87,0.00,,,0.00,VWS V14.01,2013-11-18 09:46:00,
2013-11-18 03:51:00,22.4,19.0,29.95,West,271,2.0,3.0,87,0.00,,,0.00,VWS V14.01,2013-11-18 09:51:00,
2013-11-18 03:56:00,22.4,18.8,29.95,West,271,2.0,3.0,86,0.00,,,0.00,VWS V14.01,2013-11-18 09:56:00,
2013-11-18 04:00:00,22.2,18.6,29.95,WSW,248,2.0,3.0,86,0.00,,,0.00,VWS V14.01,2013-11-18 10:00:00,
2013-11-18 04:01:00,22.0,18.4,29.96,WSW,248,1.0,3.0,86,0.00,,,0.00,VWS V14.01,2013-11-18 10:01:00,
2013-11-18 04:06:00,21.8,18.2,29.96,WSW,248,1.0,3.0,86,0.00,,,0.00,VWS V14.01,2013-11-18 10:06:00,
2013-11-18 04:11:00,21.7,18.1,29.96,WSW,248,1.0,3.0,86,0.00,,,0.00,VWS V14.01,2013-11-18 10:11:00,
2013-11-18 04:15:00,21.6,18.0,29.96,WSW,248,2.0,3.0,86,0.00,,,0.00,VWS V14.01,2013-11-18 10:15:00,
2013-11-18 04:16:00,21.5,17.9,29.96,WSW,248,1.0,3.0,86,0.00,,,0.00,VWS V14.01,2013-11-18 10:16:00,
2013-11-18 04:21:00,21.3,17.7,29.96,WSW,248,1.0,3.0,86,0.00,,,0.00,VWS V14.01,2013-11-18 10:21:00,
2013-11-18 04:26:00,21.1,17.5,29.96,WSW,248,1.0,3.0,86,0.00,,,0.00,VWS V14.01,2013-11-18 10:26:00,
2013-11-18 04:30:00,20.9,17.3,29.96,WSW,248,1.0,3.0,86,0.00,,,0.00,VWS V14.01,2013-11-18 10:30:00,
2013-11-18 04:31:00,20.8,17.2,29.96,WSW,248,1.0,3.0,86,0.00,,,0.00,VWS V14.01,2013-11-18 10:31:00,
2013-11-18 04:36:00,20.7,17.1,29.96,South,189,2.0,4.0,86,0.00,,,0.00,VWS V14.01,2013-11-18 10:36:00,
2013-11-18 04:41:00,20.3,16.7,29.96,South,174,3.0,4.0,86,0.00,,,0.00,VWS V14.01,2013-11-18 10:41:00,
2013-11-18 04:45:00,20.0,16.4,29.96,SSE,167,3.0,5.0,86,0.00,,,0.00,VWS V14.01,2013-11-18 10:45:00,
2013-11-18 04:46:00,19.9,16.3,29.96,South,169,2.0,5.0,86,0.00,,,0.00,VWS V14.01,2013-11-18 10:46:00,
2013-11-18 04:51:00,19.6,16.0,29.97,South,176,2.0,5.0,86,0.00,,,0.00,VWS V14.01,2013-11-18 10:51:00,
2013-11-18 04:56:00,19.4,15.8,29.97,South,180,3.0,5.0,86,0.00,,,0.00,VWS V14.01,2013-11-18 10:56:00,
2013-11-18 05:00:00,19.2,15.9,29.97,South,174,3.0,5.0,87,0.00,,,0.00,VWS V14.01,2013-11-18 11:00:00,
2013-11-18 05:01:00,19.1,15.8,29.97,South,174,2.0,5.0,87,0.00,,,0.00,VWS V14.01,2013-11-18 11:01:00,
2013-11-18 05:06:00,18.9,15.6,29.98,South,182,3.0,5.0,87,0.00,,,0.00,VWS V14.01,2013-11-18 11:06:00,
2013-11-18 05:11:00,18.6,15.3,29.97,South,175,3.0,5.0,87,0.00,,,0.00,VWS V14.01,2013-11-18 11:11:00,
2013-11-18 05:15:00,18.5,15.2,29.98,South,176,3.0,5.0,87,0.00,,,0.00,VWS V14.01,2013-11-18 11:15:00,
2013-11-18 05:16:00,18.4,15.1,29.98,South,182,3.0,4.0,87,0.00,,,0.00,VWS V14.01,2013-11-18 11:16:00,
2013-11-18 05:21:00,18.2,14.9,29.98,South,188,2.0,4.0,87,0.00,,,0.00,VWS V14.01,2013-11-18 11:21:00,
2013-11-18 05:26:00,18.2,14.9,29.98,South,184,1.0,4.0,87,0.00,,,0.00,VWS V14.01,2013-11-18 11:26:00,
2013-11-18 05:30:00,18.2,14.9,29.98,South,184,0.0,4.0,87,0.00,,,0.00,VWS V14.01,2013-11-18 11:30:00,
2013-11-18 05:31:00,18.1,14.8,29.98,South,184,0.0,1.0,87,0.00,,,0.00,VWS V14.01,2013-11-18 11:31:00,
2013-11-18 05:36:00,18.1,14.8,29.98,South,184,0.0,1.0,87,0.00,,,0.00,VWS V14.01,2013-11-18 11:36:00,
2013-11-18 05:41:00,18.0,14.7,29.97,South,184,0.0,1.0,87,0.00,,,0.00,VWS V14.01,2013-11-18 11:41:00,
2013-11-18 05:45:00,17.9,14.9,29.97,South,184,0.0,1.0,88,0.00,,,0.00,VWS V14.01,2013-11-18 11:45:00,
2013-11-18 05:46:00,17.9,14.9,29.98,South,184,0.0,0.0,88,0.00,,,0.00,VWS V14.01,2013-11-18 11:46:00,
2013-11-18 05:51:00,18.0,15.0,29.98,SSE,159,3.0,3.0,88,0.00,,,0.00,VWS V14.01,2013-11-18 11:51:00,
2013-11-18 05:56:00,17.3,14.0,29.98,SSE,159,5.0,6.0,87,0.00,,,0.00,VWS V14.01,2013-11-18 11:56:00,
2013-11-18 06:00:00,16.6,13.1,29.98,SSE,163,5.0,6.0,86,0.00,,,0.00,VWS V14.01,2013-11-18 12:00:00,
2013-11-18 06:01:00,16.1,12.6,29.98,SSE,161,3.0,6.0,86,0.00,,,0.00,VWS V14.01,2013-11-18 12:01:00,
2013-11-18 06:06:00,15.3,12.1,29.99,SSE,167,5.0,6.0,87,0.00,,,0.00,VWS V14.01,2013-11-18 12:06:00,
2013-11-18 06:11:00,15.0,11.8,29.99,South,169,6.0,6.0,87,0.00,,,0.00,VWS V14.01,2013-11-18 12:11:00,
2013-11-18 06:15:00,14.9,11.7,29.99,South,169,3.0,6.0,87,0.00,,,0.00,VWS V14.01,2013-11-18 12:15:00,
2013-11-18 06:16:00,14.9,11.9,29.99,SSE,161,6.0,6.0,88,0.00,,,0.00,VWS V14.01,2013-11-18 12:16:00,
2013-11-18 06:21:00,14.8,11.8,29.99,SSE,151,4.0,6.0,88,0.00,,,0.00,VWS V14.01,2013-11-18 12:21:00,
2013-11-18 06:26:00,14.7,11.7,29.99,SSE,150,4.0,6.0,88,0.00,,,0.00,VWS V14.01,2013-11-18 12:26:00,
2013-11-18 06:30:00,14.7,11.7,29.99,SSE,152,5.0,6.0,88,0.00,,,0.00,VWS V14.01,2013-11-18 12:30:00,
2013-11-18 06:31:00,14.7,11.7,29.99,SE,144,3.0,5.0,88,0.00,,,0.00,VWS V14.01,2013-11-18 12:31:00,
2013-11-18 06:36:00,14.7,11.7,29.99,SE,146,3.0,5.0,88,0.00,,,0.00,VWS V14.01,2013-11-18 12:36:00,
2013-11-18 06:41:00,14.7,11.7,29.99,SE,146,4.0,5.0,88,0.00,,,0.00,VWS V14.01,2013-11-18 12:41:00,
2013-11-18 06:45:00,14.8,12.1,29.99,SSE,161,5.0,5.0,89,0.00,,,0.00,VWS V14.01,2013-11-18 12:45:00,
2013-11-18 06:46:00,15.0,12.3,29.99,SSE,158,3.0,6.0,89,0.00,,,0.00,VWS V14.01,2013-11-18 12:46:00,
2013-11-18 06:51:00,15.2,12.5,29.99,SSE,153,3.0,6.0,89,0.00,,,0.00,VWS V14.01,2013-11-18 12:51:00,
2013-11-18 06:56:00,15.1,12.1,29.99,SSE,152,3.0,6.0,88,0.00,,,0.00,VWS V14.01,2013-11-18 12:56:00,
2013-11-18 07:00:00,15.1,12.1,29.99,SSE,150,4.0,6.0,88,0.00,,,0.00,VWS V14.01,2013-11-18 13:00:00,
2013-11-18 07:01:00,15.0,12.0,29.99,SSE,153,5.0,5.0,88,0.00,,,0.00,VWS V14.01,2013-11-18 13:01:00,
2013-11-18 07:06:00,15.0,12.0,29.99,SSE,147,3.0,6.0,88,0.00,,,0.00,VWS V14.01,2013-11-18 13:06:00,
2013-11-18 07:11:00,14.9,11.9,29.99,SSE,154,3.0,6.0,88,0.00,,,0.00,VWS V14.01,2013-11-18 13:11:00,
2013-11-18 07:15:00,14.9,11.9,29.99,SSE,152,3.0,6.0,88,0.00,,,0.00,VWS V14.01,2013-11-18 13:15:00,
2013-11-18 07:16:00,14.8,12.1,29.99,SSE,155,5.0,5.0,89,0.00,,,0.00,VWS V14.01,2013-11-18 13:16:00,
2013-11-18 07:21:00,14.9,12.2,29.99,SSE,147,4.0,6.0,89,0.00,,,0.00,VWS V14.01,2013-11-18 13:21:00,
2013-11-18 07:26:00,14.9,12.2,30.00,SSE,158,5.0,9.0,89,0.00,,,0.00,VWS V14.01,2013-11-18 13:26:00,
2013-11-18 07:30:00,14.9,12.2,30.00,SSE,157,6.0,9.0,89,0.00,,,0.00,VWS V14.01,2013-11-18 13:30:00,
2013-11-18 07:31:00,14.9,12.2,30.00,SSE,157,6.0,6.0,89,0.00,,,0.00,VWS V14.01,2013-11-18 13:31:00,
2013-11-18 07:36:00,14.8,12.1,30.00,SSE,157,6.0,6.0,89,0.00,,,0.00,VWS V14.01,2013-11-18 13:36:00,
2013-11-18 07:41:00,14.8,12.1,30.00,SE,139,4.0,6.0,89,0.00,,,0.00,VWS V14.01,2013-11-18 13:41:00,
2013-11-18 07:45:00,14.8,12.1,30.00,SE,144,3.0,6.0,89,0.00,,,0.00,VWS V14.01,2013-11-18 13:45:00,
2013-11-18 07:46:00,14.8,12.1,29.99,SSE,157,6.0,6.0,89,0.00,,,0.00,VWS V14.01,2013-11-18 13:46:00,
2013-11-18 07:51:00,14.9,12.2,30.00,SE,143,3.0,6.0,89,0.00,,,0.00,VWS V14.01,2013-11-18 13:51:00,
2013-11-18 07:56:00,15.0,12.3,30.00,SSE,155,5.0,6.0,89,0.00,,,0.00,VWS V14.01,2013-11-18 13:56:00,
2013-11-18 08:00:00,15.0,12.3,30.00,SE,144,3.0,6.0,89,0.00,,,0.00,VWS V14.01,2013-11-18 14:00:00,
2013-11-18 08:01:00,15.0,12.3,30.00,SSE,147,3.0,5.0,89,0.00,,,0.00,VWS V14.01,2013-11-18 14:01:00,
2013-11-18 08:06:00,15.1,12.4,30.01,SSE,159,3.0,6.0,89,0.00,,,0.00,VWS V14.01,2013-11-18 14:06:00,
2013-11-18 08:11:00,15.2,12.5,30.01,SSE,151,2.0,6.0,89,0.00,,,0.00,VWS V14.01,2013-11-18 14:11:00,
2013-11-18 08:15:00,15.2,12.5,30.01,SSE,155,3.0,6.0,89,0.00,,,0.00,VWS V14.01,2013-11-18 14:15:00,
2013-11-18 08:16:00,15.3,12.6,30.01,South,169,3.0,3.0,89,0.00,,,0.00,VWS V14.01,2013-11-18 14:16:00,
2013-11-18 08:20:00,15.7,13.2,30.02,South,169,3.0,6.0,90,0.00,,,0.00,VWS V14.01,2013-11-18 14:20:00,
2013-11-18 08:25:00,16.1,13.6,30.02,SSE,165,5.0,7.0,90,0.00,,,0.00,VWS V14.01,2013-11-18 14:25:00,
2013-11-18 08:30:00,16.6,14.1,30.02,SE,144,5.0,7.0,90,0.00,,,0.00,VWS V14.01,2013-11-18 14:30:00,
2013-11-18 08:35:00,17.0,14.5,30.02,SSE,163,2.0,7.0,90,0.00,,,0.00,VWS V14.01,2013-11-18 14:35:00,
2013-11-18 08:40:00,17.5,15.0,30.02,SSE,149,2.0,7.0,90,0.00,,,0.00,VWS V14.01,2013-11-18 14:40:00,
2013-11-18 08:45:00,17.7,14.9,30.02,SE,142,3.0,4.0,89,0.00,,,0.00,VWS V14.01,2013-11-18 14:45:00,
2013-11-18 08:50:00,17.8,15.0,30.02,SE,142,4.0,5.0,89,0.00,,,0.00,VWS V14.01,2013-11-18 14:50:00,
2013-11-18 08:55:00,18.2,15.4,30.01,SE,141,3.0,7.0,89,0.00,,,0.00,VWS V14.01,2013-11-18 14:55:00,
2013-11-18 09:00:00,18.7,16.2,30.02,SE,145,2.0,5.0,90,0.00,,,0.00,VWS V14.01,2013-11-18 15:00:00,
2013-11-18 09:05:00,19.2,16.7,30.02,SE,140,2.0,5.0,90,0.00,,,0.00,VWS V14.01,2013-11-18 15:05:00,
2013-11-18 09:10:00,19.5,16.7,30.03,SE,140,1.0,5.0,89,0.00,,,0.00,VWS V14.01,2013-11-18 15:10:00,
2013-11-18 09:15:00,19.9,17.4,30.03,SE,140,1.0,1.0,90,0.00,,,0.00,VWS V14.01,2013-11-18 15:15:00,
2013-11-18 09:20:00,20.0,17.2,30.03,SE,140,1.0,1.0,89,0.00,,,0.00,VWS V14.01,2013-11-18 15:20:00,
2013-11-18 09:25:00,20.7,18.2,30.03,SE,142,3.0,5.0,90,0.00,,,0.00,VWS V14.01,2013-11-18 15:25:00,
2013-11-18 09:30:00,21.2,18.4,30.02,SE,131,2.0,5.0,89,0.00,,,0.00,VWS V14.01,2013-11-18 15:30:00,
2013-11-18 09:35:00,21.6,18.8,30.03,SE,127,3.0,5.0,89,0.00,,,0.00,VWS V14.01,2013-11-18 15:35:00,
2013-11-18 09:40:00,22.0,19.2,30.02,ESE,106,4.0,5.0,89,0.00,,,0.00,VWS V14.01,2013-11-18 15:40:00,
2013-11-18 09:45:00,22.6,19.5,30.03,ESE,108,5.0,7.0,88,0.00,,,0.00,VWS V14.01,2013-11-18 15:45:00,
2013-11-18 09:50:00,23.3,19.9,30.02,ESE,104,6.0,7.0,87,0.00,,,0.00,VWS V14.01,2013-11-18 15:50:00,
2013-11-18 09:51:00,23.4,20.0,30.03,ESE,118,2.0,7.0,87,0.00,,,0.00,VWS V14.01,2013-11-18 15:51:00,
2013-11-18 09:56:00,23.9,20.5,30.03,East,98,3.0,7.0,87,0.00,,,0.00,VWS V14.01,2013-11-18 15:56:00,
2013-11-18 10:00:00,24.1,20.2,30.03,SE,124,3.0,7.0,85,0.00,,,0.00,VWS V14.01,2013-11-18 16:00:00,
2013-11-18 10:01:00,24.1,20.2,30.03,SE,138,5.0,6.0,85,0.00,,,0.00,VWS V14.01,2013-11-18 16:01:00,
2013-11-18 10:06:00,24.2,20.0,30.03,ESE,115,2.0,7.0,84,0.00,,,0.00,VWS V14.01,2013-11-18 16:06:00,
2013-11-18 10:11:00,24.3,20.1,30.03,ESE,113,4.0,7.0,84,0.00,,,0.00,VWS V14.01,2013-11-18 16:11:00,
2013-11-18 10:15:00,24.3,20.1,30.03,ESE,114,7.0,9.0,84,0.00,,,0.00,VWS V14.01,2013-11-18 16:15:00,
2013-11-18 10:16:00,24.5,20.3,30.03,ESE,115,5.0,8.0,84,0.00,,,0.00,VWS V14.01,2013-11-18 16:16:00,
2013-11-18 10:21:00,25.0,20.5,30.03,ESE,107,4.0,9.0,83,0.00,,,0.00,VWS V14.01,2013-11-18 16:21:00,
2013-11-18 10:26:00,25.3,20.5,30.03,ESE,107,6.0,10.0,82,0.00,,,0.00,VWS V14.01,2013-11-18 16:26:00,
2013-11-18 10:30:00,25.4,20.6,30.03,ESE,109,8.0,10.0,82,0.00,,,0.00,VWS V14.01,2013-11-18 16:30:00,
2013-11-18 10:31:00,25.4,20.3,30.03,ESE,111,6.0,11.0,81,0.00,,,0.00,VWS V14.01,2013-11-18 16:31:00,
2013-11-18 10:36:00,25.5,20.4,30.03,SE,136,7.0,12.0,81,0.00,,,0.00,VWS V14.01,2013-11-18 16:36:00,
2013-11-18 10:41:00,25.7,20.6,30.03,SE,129,6.0,12.0,81,0.00,,,0.00,VWS V14.01,2013-11-18 16:41:00,
2013-11-18 10:45:00,25.9,20.8,30.03,ESE,102,6.0,12.0,81,0.00,,,0.00,VWS V14.01,2013-11-18 16:45:00,
2013-11-18 10:46:00,26.1,21.0,30.03,ESE,107,6.0,10.0,81,0.01,,,0.01,VWS V14.01,2013-11-18 16:46:00,
2013-11-18 10:51:00,26.1,20.7,30.03,ESE,102,12.0,12.0,80,0.01,,,0.01,VWS V14.01,2013-11-18 16:51:00,
2013-11-18 10:56:00,26.2,20.8,30.03,ESE,116,5.0,12.0,80,0.01,,,0.01,VWS V14.01,2013-11-18 16:56:00,
2013-11-18 11:00:00,26.3,20.9,30.03,East,90,6.0,12.0,80,0.01,,,0.01,VWS V14.01,2013-11-18 17:00:00,
2013-11-18 11:01:00,26.4,21.0,30.03,ESE,122,7.0,10.0,80,0.01,,,0.01,VWS V14.01,2013-11-18 17:01:00,
2013-11-18 11:06:00,26.5,21.1,30.03,ESE,111,5.0,12.0,80,0.01,,,0.01,VWS V14.01,2013-11-18 17:06:00,
2013-11-18 11:11:00,26.6,21.2,30.02,ESE,115,9.0,12.0,80,0.01,,,0.01,VWS V14.01,2013-11-18 17:11:00,
2013-11-18 11:15:00,26.7,21.3,30.03,East,99,6.0,12.0,80,0.01,,,0.01,VWS V14.01,2013-11-18 17:15:00,
2013-11-18 11:16:00,26.9,21.8,30.03,East,85,5.0,11.0,81,0.01,,,0.01,VWS V14.01,2013-11-18 17:16:00,
2013-11-18 11:21:00,27.0,21.6,30.02,ENE,73,4.0,13.0,80,0.01,,,0.01,VWS V14.01,2013-11-18 17:21:00,
2013-11-18 11:26:00,27.0,21.6,30.02,ESE,105,4.0,13.0,80,0.01,,,0.01,VWS V14.01,2013-11-18 17:26:00,
2013-11-18 11:30:00,27.2,22.1,30.02,ESE,113,11.0,13.0,81,0.01,,,0.01,VWS V14.01,2013-11-18 17:30:00,
2013-11-18 11:31:00,27.3,22.2,30.02,SE,126,9.0,11.0,81,0.01,,,0.01,VWS V14.01,2013-11-18 17:31:00,
2013-11-18 11:36:00,27.4,22.0,30.01,ESE,105,9.0,13.0,80,0.01,,,0.01,VWS V14.01,2013-11-18 17:36:00,
2013-11-18 11:41:00,27.8,22.6,30.01,ESE,115,2.0,13.0,81,0.01,,,0.01,VWS V14.01,2013-11-18 17:41:00,
2013-11-18 11:45:00,27.9,22.8,30.01,ENE,58,7.0,13.0,81,0.01,,,0.01,VWS V14.01,2013-11-18 17:45:00,
2013-11-18 11:46:00,27.9,22.8,30.01,ESE,119,7.0,11.0,81,0.01,,,0.01,VWS V14.01,2013-11-18 17:46:00,
2013-11-18 11:51:00,27.8,22.4,30.01,East,100,6.0,13.0,80,0.02,,,0.02,VWS V14.01,2013-11-18 17:51:00,
2013-11-18 11:56:00,27.7,22.3,30.00,ESE,107,7.0,14.0,80,0.02,,,0.02,VWS V14.01,2013-11-18 17:56:00,
2013-11-18 12:00:00,27.8,22.6,30.00,ESE,109,7.0,14.0,81,0.02,,,0.02,VWS V14.01,2013-11-18 18:00:00,
2013-11-18 12:01:00,27.9,22.5,30.00,SE,138,11.0,13.0,80,0.01,,,0.02,VWS V14.01,2013-11-18 18:01:00,
2013-11-18 12:06:00,28.0,22.9,30.00,East,86,5.0,13.0,81,0.01,,,0.02,VWS V14.01,2013-11-18 18:06:00,
2013-11-18 12:11:00,27.7,22.3,30.00,ENE,78,8.0,13.0,80,0.01,,,0.02,VWS V14.01,2013-11-18 18:11:00,
2013-11-18 12:15:00,27.5,22.1,30.00,SE,134,7.0,13.0,80,0.01,,,0.02,VWS V14.01,2013-11-18 18:15:00,
2013-11-18 12:16:00,27.5,22.4,30.00,East,100,4.0,8.0,81,0.01,,,0.02,VWS V14.01,2013-11-18 18:16:00,
2013-11-18 12:21:00,27.6,22.5,30.00,East,82,5.0,10.0,81,0.01,,,0.02,VWS V14.01,2013-11-18 18:21:00,
2013-11-18 12:26:00,27.5,22.4,29.99,East,96,8.0,12.0,81,0.01,,,0.02,VWS V14.01,2013-11-18 18:26:00,
2013-11-18 12:30:00,27.5,22.4,29.99,SE,125,10.0,15.0,81,0.01,,,0.02,VWS V14.01,2013-11-18 18:30:00,
2013-11-18 12:31:00,27.6,22.8,29.99,ESE,115,12.0,12.0,82,0.01,,,0.02,VWS V14.01,2013-11-18 18:31:00,
2013-11-18 12:36:00,27.8,22.9,29.99,East,96,6.0,15.0,82,0.02,,,0.03,VWS V14.01,2013-11-18 18:36:00,
2013-11-18 12:41:00,28.0,22.9,29.99,ESE,106,8.0,15.0,81,0.02,,,0.03,VWS V14.01,2013-11-18 18:41:00,
2013-11-18 12:45:00,28.0,23.1,29.98,ENE,73,5.0,15.0,82,0.02,,,0.03,VWS V14.01,2013-11-18 18:45:00,
2013-11-18 12:46:00,28.2,23.6,29.98,ESE,108,6.0,9.0,83,0.02,,,0.03,VWS V14.01,2013-11-18 18:46:00,
2013-11-18 12:51:00,28.8,23.9,29.98,East,85,6.0,12.0,82,0.02,,,0.03,VWS V14.01,2013-11-18 18:51:00,
2013-11-18 12:56:00,28.9,24.0,29.98,East,86,5.0,14.0,82,0.02,,,0.03,VWS V14.01,2013-11-18 18:56:00,
2013-11-18 13:00:00,29.1,24.2,29.98,SE,129,5.0,14.0,82,0.02,,,0.03,VWS V14.01,2013-11-18 19:00:00,
2013-11-18 13:01:00,29.3,24.4,29.98,ESE,106,9.0,12.0,82,0.01,,,0.03,VWS V14.01,2013-11-18 19:01:00,
2013-11-18 13:06:00,29.4,24.5,29.98,East,89,4.0,12.0,82,0.01,,,0.03,VWS V14.01,2013-11-18 19:06:00,
2013-11-18 13:11:00,29.7,25.1,29.98,East,97,12.0,12.0,83,0.01,,,0.03,VWS V14.01,2013-11-18 19:11:00,
2013-11-18 13:15:00,29.7,24.8,29.98,ESE,103,13.0,16.0,82,0.01,,,0.03,VWS V14.01,2013-11-18 19:15:00,
2013-11-18 13:16:00,29.7,24.8,29.97,East,91,8.0,15.0,82,0.01,,,0.03,VWS V14.01,2013-11-18 19:16:00,
2013-11-18 13:21:00,29.9,25.0,29.97,ENE,78,10.0,16.0,82,0.01,,,0.03,VWS V14.01,2013-11-18 19:21:00,
2013-11-18 13:26:00,30.3,25.7,29.97,ESE,119,6.0,16.0,83,0.01,,,0.03,VWS V14.01,2013-11-18 19:26:00,
2013-11-18 13:30:00,30.4,25.5,29.97,SE,126,9.0,16.0,82,0.01,,,0.03,VWS V14.01,2013-11-18 19:30:00,
2013-11-18 13:31:00,30.3,25.4,29.97,ESE,113,10.0,16.0,82,0.01,,,0.03,VWS V14.01,2013-11-18 19:31:00,
2013-11-18 13:36:00,30.5,25.9,29.96,ESE,116,14.0,16.0,83,0.01,,,0.03,VWS V14.01,2013-11-18 19:36:00,
2013-11-18 13:41:00,30.7,26.1,29.96,SE,134,14.0,16.0,83,0.01,,,0.03,VWS V14.01,2013-11-18 19:41:00,
2013-11-18 13:45:00,30.9,26.3,29.96,SE,126,9.0,16.0,83,0.01,,,0.03,VWS V14.01,2013-11-18 19:45:00,
2013-11-18 13:46:00,31.0,26.1,29.96,East,96,8.0,14.0,82,0.00,,,0.03,VWS V14.01,2013-11-18 19:46:00,
2013-11-18 13:51:00,31.1,26.5,29.95,ESE,103,7.0,17.0,83,0.00,,,0.03,VWS V14.01,2013-11-18 19:51:00,
2013-11-18 13:56:00,31.0,26.1,29.96,ESE,107,6.0,17.0,82,0.01,,,0.04,VWS V14.01,2013-11-18 19:56:00,
2013-11-18 14:00:00,31.0,26.4,29.96,ESE,113,6.0,17.0,83,0.01,,,0.04,VWS V14.01,2013-11-18 20:00:00,
2013-11-18 14:01:00,31.1,26.5,29.96,ESE,108,11.0,13.0,83,0.01,,,0.04,VWS V14.01,2013-11-18 20:01:00,
2013-11-18 14:06:00,31.0,26.4,29.95,SE,137,7.0,17.0,83,0.01,,,0.04,VWS V14.01,2013-11-18 20:06:00,
2013-11-18 14:11:00,31.2,26.9,29.95,ESE,121,5.0,17.0,84,0.01,,,0.04,VWS V14.01,2013-11-18 20:11:00,
2013-11-18 14:15:00,31.4,27.0,29.95,East,84,6.0,17.0,84,0.01,,,0.04,VWS V14.01,2013-11-18 20:15:00,
2013-11-18 14:16:00,31.4,27.0,29.95,SE,135,9.0,12.0,84,0.01,,,0.04,VWS V14.01,2013-11-18 20:16:00,
2013-11-18 14:21:00,31.4,27.0,29.95,SE,132,11.0,15.0,84,0.01,,,0.04,VWS V14.01,2013-11-18 20:21:00,
2013-11-18 14:26:00,31.8,27.4,29.95,East,99,7.0,15.0,84,0.01,,,0.04,VWS V14.01,2013-11-18 20:26:00,
2013-11-18 14:30:00,32.2,28.1,29.96,SE,124,9.0,15.0,85,0.01,,,0.04,VWS V14.01,2013-11-18 20:30:00,
2013-11-18 14:31:00,32.2,27.8,29.96,ESE,109,7.0,11.0,84,0.01,,,0.04,VWS V14.01,2013-11-18 20:31:00,
2013-11-18 14:36:00,32.0,27.3,29.96,East,90,8.0,11.0,83,0.01,,,0.04,VWS V14.01,2013-11-18 20:36:00,
2013-11-18 14:41:00,31.7,27.3,29.95,SE,134,9.0,12.0,84,0.01,,,0.04,VWS V14.01,2013-11-18 20:41:00,
2013-11-18 14:45:00,31.8,27.4,29.95,ESE,112,8.0,12.0,84,0.01,,,0.04,VWS V14.01,2013-11-18 20:45:00,
2013-11-18 14:46:00,31.8,27.4,29.95,ESE,116,4.0,12.0,84,0.01,,,0.04,VWS V14.01,2013-11-18 20:46:00,
2013-11-18 14:51:00,31.9,27.8,29.95,East,94,6.0,13.0,85,0.01,,,0.04,VWS V14.01,2013-11-18 20:51:00,
2013-11-18 14:55:00,31.9,27.5,29.95,East,89,7.0,13.0,84,0.01,,,0.04,VWS V14.01,2013-11-18 20:55:00,
2013-11-18 15:00:00,32.2,28.1,29.95,ESE,112,7.0,9.0,85,0.00,,,0.04,VWS V14.01,2013-11-18 21:00:00,
2013-11-18 15:05:00,32.3,28.2,29.95,ESE,121,4.0,10.0,85,0.00,,,0.04,VWS V14.01,2013-11-18 21:05:00,
2013-11-18 15:10:00,32.4,28.3,29.95,ESE,109,3.0,11.0,85,0.00,,,0.04,VWS V14.01,2013-11-18 21:10:00,
2013-11-18 15:15:00,32.6,28.5,29.95,East,87,4.0,10.0,85,0.00,,,0.04,VWS V14.01,2013-11-18 21:15:00,
2013-11-18 15:20:00,32.8,28.7,29.94,East,98,6.0,11.0,85,0.00,,,0.04,VWS V14.01,2013-11-18 21:20:00,
2013-11-18 15:25:00,32.9,28.8,29.94,East,96,4.0,11.0,85,0.00,,,0.04,VWS V14.01,2013-11-18 21:25:00,
2013-11-18 15:30:00,33.0,28.6,29.94,East,92,2.0,5.0,84,0.00,,,0.04,VWS V14.01,2013-11-18 21:30:00,
2013-11-18 15:35:00,33.0,28.6,29.94,East,96,1.0,8.0,84,0.00,,,0.04,VWS V14.01,2013-11-18 21:35:00,
2013-11-18 15:40:00,33.0,28.9,29.94,ESE,113,3.0,8.0,85,0.00,,,0.04,VWS V14.01,2013-11-18 21:40:00,
2013-11-18 15:45:00,33.0,28.9,29.94,ESE,113,5.0,7.0,85,0.00,,,0.04,VWS V14.01,2013-11-18 21:45:00,
2013-11-18 15:50:00,33.0,28.9,29.94,ENE,78,7.0,11.0,85,0.00,,,0.04,VWS V14.01,2013-11-18 21:50:00,
2013-11-18 15:55:00,33.0,28.9,29.94,East,84,3.0,11.0,85,0.00,,,0.04,VWS V14.01,2013-11-18 21:55:00,
2013-11-18 16:00:00,33.1,29.0,29.94,SE,126,4.0,6.0,85,0.00,,,0.04,VWS V14.01,2013-11-18 22:00:00,
2013-11-18 16:05:00,33.2,29.1,29.93,East,90,7.0,10.0,85,0.00,,,0.04,VWS V14.01,2013-11-18 22:05:00,
2013-11-18 16:10:00,33.2,29.1,29.93,East,99,4.0,10.0,85,0.00,,,0.04,VWS V14.01,2013-11-18 22:10:00,
2013-11-18 16:15:00,33.2,29.1,29.93,East,90,2.0,9.0,85,0.00,,,0.04,VWS V14.01,2013-11-18 22:15:00,
2013-11-18 16:20:00,33.2,29.1,29.93,East,88,5.0,9.0,85,0.00,,,0.04,VWS V14.01,2013-11-18 22:20:00,
2013-11-18 16:25:00,33.1,29.3,29.93,ESE,115,4.0,9.0,86,0.00,,,0.04,VWS V14.01,2013-11-18 22:25:00,
2013-11-18 16:30:00,33.1,29.3,29.93,SE,126,4.0,7.0,86,0.00,,,0.04,VWS V14.01,2013-11-18 22:30:00,
2013-11-18 16:35:00,33.1,29.3,29.93,East,99,5.0,9.0,86,0.00,,,0.04,VWS V14.01,2013-11-18 22:35:00,
2013-11-18 16:40:00,33.0,29.2,29.93,East,82,3.0,9.0,86,0.00,,,0.04,VWS V14.01,2013-11-18 22:40:00,
2013-11-18 16:45:00,33.0,29.2,29.93,ESE,104,6.0,7.0,86,0.00,,,0.04,VWS V14.01,2013-11-18 22:45:00,
2013-11-18 16:50:00,32.9,29.4,29.93,East,99,7.0,8.0,87,0.00,,,0.04,VWS V14.01,2013-11-18 22:50:00,
2013-11-18 16:55:00,32.9,29.4,29.92,East,92,2.0,9.0,87,0.00,,,0.04,VWS V14.01,2013-11-18 22:55:00,
2013-11-18 17:00:00,32.7,29.2,29.92,ESE,114,6.0,7.0,87,0.00,,,0.04,VWS V14.01,2013-11-18 23:00:00,
2013-11-18 17:05:00,32.6,29.1,29.92,ESE,115,5.0,9.0,87,0.00,,,0.04,VWS V14.01,2013-11-18 23:05:00,
2013-11-18 17:10:00,32.4,28.9,29.92,ESE,110,8.0,9.0,87,0.00,,,0.04,VWS V14.01,2013-11-18 23:10:00,
2013-11-18 17:15:00,32.2,28.7,29.92,ENE,78,5.0,7.0,87,0.00,,,0.04,VWS V14.01,2013-11-18 23:15:00,
2013-11-18 17:20:00,32.1,28.9,29.92,ENE,73,4.0,8.0,88,0.00,,,0.04,VWS V14.01,2013-11-18 23:20:00,
2013-11-18 17:25:00,31.9,28.7,29.92,ESE,104,3.0,8.0,88,0.00,,,0.04,VWS V14.01,2013-11-18 23:25:00,
2013-11-18 17:30:00,31.8,28.6,29.92,SE,131,5.0,7.0,88,0.00,,,0.04,VWS V14.01,2013-11-18 23:30:00,
2013-11-18 17:35:00,31.8,28.6,29.92,SE,124,7.0,8.0,88,0.00,,,0.04,VWS V14.01,2013-11-18 23:35:00,
2013-11-18 17:40:00,31.8,28.6,29.92,East,99,4.0,9.0,88,0.00,,,0.04,VWS V14.01,2013-11-18 23:40:00,
2013-11-18 17:45:00,31.8,28.6,29.91,ESE,112,8.0,9.0,88,0.00,,,0.04,VWS V14.01,2013-11-18 23:45:00,
2013-11-18 17:50:00,31.7,28.8,29.92,SE,130,5.0,9.0,89,0.00,,,0.04,VWS V14.01,2013-11-18 23:50:00,
2013-11-18 17:55:00,31.7,28.8,29.91,East,101,3.0,11.0,89,0.00,,,0.04,VWS V14.01,2013-11-18 23:55:00,
2013-11-18 18:00:00,31.7,28.8,29.91,ESE,116,6.0,13.0,89,0.00,,,0.04,VWS V14.01,2013-11-19 00:00:00,
2013-11-18 18:05:00,31.7,28.8,29.91,ESE,115,5.0,13.0,89,0.00,,,0.04,VWS V14.01,2013-11-19 00:05:00,
2013-11-18 18:10:00,31.5,28.6,29.90,ESE,105,4.0,13.0,89,0.00,,,0.04,VWS V14.01,2013-11-19 00:10:00,
2013-11-18 18:15:00,31.5,28.6,29.90,ESE,104,7.0,10.0,89,0.00,,,0.04,VWS V14.01,2013-11-19 00:15:00,
2013-11-18 18:20:00,31.5,28.6,29.90,ESE,109,8.0,10.0,89,0.00,,,0.04,VWS V14.01,2013-11-19 00:20:00,
2013-11-18 18:25:00,31.4,28.5,29.90,SE,128,6.0,11.0,89,0.00,,,0.04,VWS V14.01,2013-11-19 00:25:00,
2013-11-18 18:30:00,31.4,28.5,29.89,SE,129,7.0,10.0,89,0.00,,,0.04,VWS V14.01,2013-11-19 00:30:00,
2013-11-18 18:35:00,31.4,28.5,29.89,ESE,105,6.0,11.0,89,0.00,,,0.04,VWS V14.01,2013-11-19 00:35:00,
2013-11-18 18:40:00,31.4,28.5,29.89,SE,128,5.0,11.0,89,0.00,,,0.04,VWS V14.01,2013-11-19 00:40:00,
2013-11-18 18:45:00,31.3,28.4,29.89,ESE,120,7.0,11.0,89,0.00,,,0.04,VWS V14.01,2013-11-19 00:45:00,
2013-11-18 18:50:00,31.4,28.5,29.89,SE,140,9.0,11.0,89,0.00,,,0.04,VWS V14.01,2013-11-19 00:50:00,
2013-11-18 18:55:00,31.3,28.1,29.88,SE,143,5.0,11.0,88,0.00,,,0.04,VWS V14.01,2013-11-19 00:55:00,
2013-11-18 19:00:00,31.2,28.0,29.88,SE,132,8.0,9.0,88,0.00,,,0.04,VWS V14.01,2013-11-19 01:00:00,
2013-11-18 19:05:00,31.2,28.0,29.88,SE,141,8.0,10.0,88,0.00,,,0.04,VWS V14.01,2013-11-19 01:05:00,
2013-11-18 19:10:00,31.1,27.9,29.88,SE,127,7.0,10.0,88,0.00,,,0.04,VWS V14.01,2013-11-19 01:10:00,
2013-11-18 19:15:00,31.3,28.1,29.88,SE,138,8.0,10.0,88,0.00,,,0.04,VWS V14.01,2013-11-19 01:15:00,
2013-11-18 19:20:00,31.5,28.3,29.88,ESE,122,6.0,11.0,88,0.00,,,0.04,VWS V14.01,2013-11-19 01:20:00,
2013-11-18 19:25:00,31.6,28.1,29.88,SE,130,8.0,11.0,87,0.00,,,0.04,VWS V14.01,2013-11-19 01:25:00,
2013-11-18 19:30:00,31.7,28.2,29.87,ESE,119,7.0,11.0,87,0.00,,,0.04,VWS V14.01,2013-11-19 01:30:00,
2013-11-18 19:35:00,31.9,28.4,29.87,ESE,104,8.0,11.0,87,0.00,,,0.04,VWS V14.01,2013-11-19 01:35:00,
2013-11-18 19:40:00,32.0,28.2,29.87,SE,130,5.0,11.0,86,0.00,,,0.04,VWS V14.01,2013-11-19 01:40:00,
2013-11-18 19:44:00,32.1,28.6,29.87,SE,145,7.0,11.0,87,0.00,,,0.04,VWS V14.01,2013-11-19 01:44:00,
2013-11-18 19:45:00,32.1,28.6,29.87,SE,145,7.0,11.0,87,0.00,,,0.04,VWS V14.01,2013-11-19 01:45:00,
2013-11-18 19:49:00,32.2,28.4,29.87,ESE,113,3.0,10.0,86,0.00,,,0.04,VWS V14.01,2013-11-19 01:49:00,
2013-11-18 19:54:00,32.3,28.5,29.86,SE,142,7.0,10.0,86,0.00,,,0.04,VWS V14.01,2013-11-19 01:54:00,
2013-11-18 19:59:00,32.4,28.6,29.86,SE,134,4.0,10.0,86,0.00,,,0.04,VWS V14.01,2013-11-19 01:59:00,
2013-11-18 20:00:00,32.4,28.6,29.86,SE,124,4.0,10.0,86,0.00,,,0.04,VWS V14.01,2013-11-19 02:00:00,
2013-11-18 20:04:00,32.4,28.6,29.86,ESE,122,5.0,9.0,86,0.00,,,0.04,VWS V14.01,2013-11-19 02:04:00,
2013-11-18 20:09:00,32.4,28.6,29.86,SE,140,8.0,11.0,86,0.00,,,0.04,VWS V14.01,2013-11-19 02:09:00,
2013-11-18 20:14:00,32.5,28.4,29.86,SE,143,3.0,11.0,85,0.00,,,0.04,VWS V14.01,2013-11-19 02:14:00,
2013-11-18 20:15:00,32.5,28.4,29.86,SE,132,5.0,11.0,85,0.00,,,0.04,VWS V14.01,2013-11-19 02:15:00,
2013-11-18 20:19:00,32.3,28.2,29.86,SE,128,6.0,9.0,85,0.00,,,0.04,VWS V14.01,2013-11-19 02:19:00,
2013-11-18 20:24:00,32.1,28.0,29.86,SE,142,4.0,9.0,85,0.00,,,0.04,VWS V14.01,2013-11-19 02:24:00,
2013-11-18 20:29:00,31.9,27.8,29.86,SE,136,8.0,9.0,85,0.00,,,0.04,VWS V14.01,2013-11-19 02:29:00,
2013-11-18 20:30:00,31.9,27.8,29.86,SE,134,7.0,9.0,85,0.00,,,0.04,VWS V14.01,2013-11-19 02:30:00,
2013-11-18 20:34:00,31.7,27.9,29.86,SE,136,4.0,8.0,86,0.00,,,0.04,VWS V14.01,2013-11-19 02:34:00,
2013-11-18 20:39:00,31.7,27.9,29.86,SE,129,5.0,8.0,86,0.00,,,0.04,VWS V14.01,2013-11-19 02:39:00,
2013-11-18 20:44:00,31.7,27.9,29.86,SE,134,4.0,8.0,86,0.00,,,0.04,VWS V14.01,2013-11-19 02:44:00,
2013-11-18 20:45:00,31.7,27.9,29.86,SE,134,3.0,8.0,86,0.00,,,0.04,VWS V14.01,2013-11-19 02:45:00,
2013-11-18 20:49:00,31.7,27.9,29.86,SE,145,4.0,7.0,86,0.00,,,0.04,VWS V14.01,2013-11-19 02:49:00,
2013-11-18 20:54:00,32.0,28.2,29.86,ESE,109,3.0,9.0,86,0.00,,,0.04,VWS V14.01,2013-11-19 02:54:00,
2013-11-18 20:59:00,32.8,29.0,29.85,SE,132,8.0,11.0,86,0.00,,,0.04,VWS V14.01,2013-11-19 02:59:00,
2013-11-18 21:00:00,32.9,29.1,29.85,SE,140,10.0,11.0,86,0.00,,,0.04,VWS V14.01,2013-11-19 03:00:00,
2013-11-18 21:04:00,33.5,29.4,29.85,SSE,153,11.0,11.0,85,0.00,,,0.04,VWS V14.01,2013-11-19 03:04:00,
2013-11-18 21:09:00,33.9,29.5,29.85,SE,144,8.0,13.0,84,0.00,,,0.04,VWS V14.01,2013-11-19 03:09:00,
2013-11-18 21:14:00,34.0,29.6,29.84,SE,143,9.0,13.0,84,0.00,,,0.04,VWS V14.01,2013-11-19 03:14:00,
2013-11-18 21:15:00,34.0,29.6,29.84,SSE,155,9.0,13.0,84,0.00,,,0.04,VWS V14.01,2013-11-19 03:15:00,
2013-11-18 21:19:00,34.1,29.7,29.84,SSE,163,11.0,12.0,84,0.00,,,0.04,VWS V14.01,2013-11-19 03:19:00,
2013-11-18 21:24:00,34.1,29.7,29.84,SE,137,8.0,13.0,84,0.00,,,0.04,VWS V14.01,2013-11-19 03:24:00,
2013-11-18 21:28:00,34.2,29.5,29.84,SE,140,9.0,13.0,83,0.00,,,0.04,VWS V14.01,2013-11-19 03:28:00,
2013-11-18 21:30:00,34.2,29.5,29.84,SSE,150,7.0,13.0,83,0.00,,,0.04,VWS V14.01,2013-11-19 03:30:00,
2013-11-18 21:33:00,34.3,29.6,29.84,SE,145,9.0,14.0,83,0.00,,,0.04,VWS V14.01,2013-11-19 03:33:00,
2013-11-18 21:38:00,34.7,30.0,29.84,SE,142,8.0,14.0,83,0.00,,,0.04,VWS V14.01,2013-11-19 03:38:00,
2013-11-18 21:43:00,35.0,30.0,29.83,SSE,152,15.0,17.0,82,0.00,,,0.04,VWS V14.01,2013-11-19 03:43:00,
2013-11-18 21:45:00,35.0,30.0,29.83,SE,132,11.0,17.0,82,0.00,,,0.04,VWS V14.01,2013-11-19 03:45:00,
2013-11-18 21:48:00,35.5,30.5,29.83,SSE,156,16.0,18.0,82,0.00,,,0.04,VWS V14.01,2013-11-19 03:48:00,
2013-11-18 21:53:00,36.1,30.8,29.83,SSE,156,7.0,20.0,81,0.00,,,0.04,VWS V14.01,2013-11-19 03:53:00,
2013-11-18 21:58:00,36.2,30.5,29.83,South,173,15.0,21.0,80,0.00,,,0.04,VWS V14.01,2013-11-19 03:58:00,
2013-11-18 22:00:00,36.2,30.5,29.83,SSE,154,11.0,21.0,80,0.00,,,0.04,VWS V14.01,2013-11-19 04:00:00,
2013-11-18 22:03:00,36.4,30.7,29.83,SSE,159,17.0,19.0,80,0.00,,,0.04,VWS V14.01,2013-11-19 04:03:00,
2013-11-18 22:07:00,36.5,30.5,29.83,SSE,160,10.0,21.0,79,0.00,,,0.04,VWS V14.01,2013-11-19 04:07:00,
2013-11-18 22:12:00,36.5,30.5,29.83,SE,142,11.0,21.0,79,0.01,,,0.05,VWS V14.01,2013-11-19 04:12:00,
2013-11-18 22:15:00,36.5,30.5,29.83,SSE,163,16.0,21.0,79,0.01,,,0.05,VWS V14.01,2013-11-19 04:15:00,
2013-11-18 22:17:00,36.5,30.5,29.82,South,169,20.0,21.0,79,0.01,,,0.05,VWS V14.01,2013-11-19 04:17:00,
2013-11-18 22:22:00,36.7,30.4,29.82,South,170,11.0,24.0,78,0.01,,,0.05,VWS V14.01,2013-11-19 04:22:00,
2013-11-18 22:27:00,37.0,30.7,29.82,SE,144,16.0,25.0,78,0.01,,,0.05,VWS V14.01,2013-11-19 04:27:00,
2013-11-18 22:30:00,37.1,30.8,29.82,SSE,165,19.0,25.0,78,0.01,,,0.05,VWS V14.01,2013-11-19 04:30:00,
2013-11-18 22:32:00,37.1,30.8,29.82,South,169,17.0,25.0,78,0.01,,,0.05,VWS V14.01,2013-11-19 04:32:00,
2013-11-18 22:37:00,36.9,30.6,29.82,SSE,166,14.0,25.0,78,0.01,,,0.05,VWS V14.01,2013-11-19 04:37:00,
2013-11-18 22:42:00,36.7,30.4,29.82,SSE,161,13.0,25.0,78,0.01,,,0.05,VWS V14.01,2013-11-19 04:42:00,
2013-11-18 22:45:00,36.5,30.2,29.81,SSE,154,20.0,25.0,78,0.01,,,0.05,VWS V14.01,2013-11-19 04:45:00,
2013-11-18 22:47:00,36.6,30.3,29.82,South,170,18.0,24.0,78,0.01,,,0.05,VWS V14.01,2013-11-19 04:47:00,
2013-11-18 22:52:00,36.5,30.2,29.81,SSE,165,22.0,24.0,78,0.01,,,0.05,VWS V14.01,2013-11-19 04:52:00,
2013-11-18 22:57:00,36.4,30.1,29.81,South,185,12.0,24.0,78,0.01,,,0.05,VWS V14.01,2013-11-19 04:57:00,
2013-11-18 23:00:00,36.3,30.0,29.81,SSE,157,11.0,24.0,78,0.01,,,0.05,VWS V14.01,2013-11-19 05:00:00,
2013-11-18 23:01:00,36.2,30.2,29.81,SSE,149,12.0,19.0,79,0.01,,,0.05,VWS V14.01,2013-11-19 05:01:00,
2013-11-18 23:06:00,36.2,30.2,29.81,South,176,11.0,21.0,79,0.01,,,0.05,VWS V14.01,2013-11-19 05:06:00,
2013-11-18 23:11:00,36.2,30.2,29.81,SSE,167,14.0,21.0,79,0.01,,,0.05,VWS V14.01,2013-11-19 05:11:00,
2013-11-18 23:15:00,36.3,30.3,29.81,SE,141,14.0,21.0,79,0.01,,,0.05,VWS V14.01,2013-11-19 05:15:00,
2013-11-18 23:16:00,36.3,30.0,29.80,SSE,160,17.0,23.0,78,0.00,,,0.05,VWS V14.01,2013-11-19 05:16:00,
2013-11-18 23:21:00,36.5,30.2,29.80,South,180,21.0,25.0,78,0.00,,,0.05,VWS V14.01,2013-11-19 05:21:00,
2013-11-18 23:26:00,36.6,30.0,29.80,SSE,154,16.0,25.0,77,0.00,,,0.05,VWS V14.01,2013-11-19 05:26:00,
2013-11-18 23:30:00,36.5,30.2,29.80,SSE,157,17.0,25.0,78,0.00,,,0.05,VWS V14.01,2013-11-19 05:30:00,
2013-11-18 23:31:00,36.4,30.1,29.80,South,171,13.0,19.0,78,0.00,,,0.05,VWS V14.01,2013-11-19 05:31:00,
2013-11-18 23:36:00,36.2,29.9,29.80,SSE,159,18.0,20.0,78,0.00,,,0.05,VWS V14.01,2013-11-19 05:36:00,
2013-11-18 23:41:00,36.0,29.7,29.80,SSE,157,17.0,25.0,78,0.00,,,0.05,VWS V14.01,2013-11-19 05:41:00,
2013-11-18 23:45:00,35.9,29.6,29.80,SSE,153,17.0,25.0,78,0.00,,,0.05,VWS V14.01,2013-11-19 05:45:00,
2013-11-18 23:46:00,35.9,29.6,29.80,SE,138,17.0,23.0,78,0.00,,,0.05,VWS V14.01,2013-11-19 05:46:00,
2013-11-18 23:51:00,35.7,29.4,29.79,South,176,12.0,23.0,78,0.00,,,0.05,VWS V14.01,2013-11-19 05:51:00,
2013-11-18 23:56:00,35.7,29.4,29.79,SSE,156,14.0,23.0,78,0.00,,,0.05,VWS V14.01,2013-11-19 05:56:00,